Brookfield, GA (31727)

7:35 AM EST on December 19, 2014 (GMT -0500)
Forest Lakes | Change Station
CLOSE
Current Station
Personal Weather Station
Location: Tifton, GA
Elevation: 329 ft
Nearby Weather Stations

Elev 329 ft 31.50 °N, 83.44 °W | Updated 1 minute ago

Overcast
Overcast
45.5 °F
Feels Like 46 °F
N
0.0
Wind Variable Wind from NNE
Gusts 7.0 mph

Today
High -- | Low -- °F
--% Chance of Precip.
Yesterday
High -- | Low -- °F
Precip. -- in
7:28 AM 5:34 PM
Waning Crescent, 8% visible
Pressure 30.14 in
Visibility 10.0 miles
Clouds Overcast 6500 ft
Windchill 46 °F
Dew Point 38 °F
Humidity 76%
Rainfall 0.00 in
Snow Depth Not available.
UV 0 out of 12
Pollen 1.00 out of 12
Air Quality Not available.
Flu Activity Not available.
METAR KTMA 191215Z AUTO 00000KT 10SM OVC065 09/01 A3014 RMK AO2 T00850009

More Conditions Fewer Conditions

Pressure 30.14 in
Visibility 10.0 miles
Clouds Overcast 6500 ft
Windchill 46 °F
Dew Point 38 °F
Humidity 76%
Rainfall 0.00 in
Snow Depth Not available.
UV 0 out of 12
Pollen 1.00 out of 12
Air Quality Not available.
Flu Activity Not available.
METAR KTMA 191215Z AUTO 00000KT 10SM OVC065 09/01 A3014 RMK AO2 T00850009

More Conditions Fewer Conditions

10-Day Weather Forecast

Almanac

Astronomy

Dec. 19, 2014 Rise Set
Actual Time
Civil Twilight
Nautical Twilight
Astronomical Twilight
Moon
Length of Visible Light
Length of Day
Tomorrow will be .
, % of the Moon is Illuminated

Today's Extremes

State Highs State Lows

Community

WunderPhotos

Upload Photos

1,778,973 photos uploaded!

WunderBlogs® & News

Nearby

Air Quality

  Air Quality AQ Index Pollutant
Not available.

Snow Depth

Station Depth Elevation

Earthquake Activity

City Distance Mag. Time & Date
Minimum magnitude displayed is 2.5.

Coastal Water Temperatures

Place Temperature

Nearby Weather Stations